createdAt,value
2018-03-21T00:02:19.752Z,102278.27
2018-03-21T00:07:14.185Z,102281.25
2018-03-21T00:12:08.498Z,102297.22
2018-03-21T00:17:02.809Z,102301.94
2018-03-21T00:21:57.179Z,102311.00
2018-03-21T00:26:51.528Z,102306.16
2018-03-21T00:31:46.583Z,102310.87
2018-03-21T00:36:40.898Z,102309.94
2018-03-21T00:41:35.231Z,102320.30
2018-03-21T00:46:29.542Z,102331.08
2018-03-21T00:51:23.831Z,102324.94
2018-03-21T00:56:18.169Z,102327.47
2018-03-21T01:01:13.245Z,102333.02
2018-03-21T01:06:07.625Z,102325.58
2018-03-21T01:11:01.931Z,102329.41
2018-03-21T01:15:56.229Z,102336.25
2018-03-21T01:20:50.575Z,102338.36
2018-03-21T01:25:45.697Z,102337.40
2018-03-21T01:30:40.181Z,102332.13
2018-03-21T01:35:34.402Z,102336.42
2018-03-21T01:40:29.472Z,102333.32
2018-03-21T01:45:23.795Z,102328.45
2018-03-21T01:50:18.109Z,102331.85
2018-03-21T01:55:12.413Z,102328.75
2018-03-21T02:00:07.484Z,102327.83
2018-03-21T02:05:01.772Z,102332.08
2018-03-21T02:09:56.077Z,102327.67
2018-03-21T02:14:50.388Z,102333.28
2018-03-21T02:19:45.725Z,102327.99
2018-03-21T02:24:40.042Z,102329.25
2018-03-21T02:29:34.338Z,102322.68
2018-03-21T02:34:28.648Z,102327.86
2018-03-21T02:39:22.951Z,102329.97
2018-03-21T02:44:17.273Z,102336.84
2018-03-21T02:49:12.352Z,102343.73
2018-03-21T02:54:06.764Z,102342.80
2018-03-21T02:59:01.142Z,102346.20
2018-03-21T03:03:55.508Z,102336.19
2018-03-21T03:08:49.864Z,102337.86
2018-03-21T03:13:44.199Z,102343.42
2018-03-21T03:18:39.398Z,102347.69
2018-03-21T03:23:33.735Z,102345.86
2018-03-21T03:28:29.015Z,102353.19
2018-03-21T03:33:23.560Z,102363.94
2018-03-21T03:38:18.646Z,102372.16
2018-03-21T03:43:12.945Z,102370.82
2018-03-21T03:48:07.269Z,102372.04
2018-03-21T03:53:01.586Z,102380.25
2018-03-21T03:57:56.661Z,102376.74
2018-03-21T04:02:51.065Z,102383.20
2018-03-21T04:07:45.482Z,102381.02
2018-03-21T04:12:39.781Z,102377.49
2018-03-21T04:17:34.068Z,102385.28
2018-03-21T04:22:28.374Z,102383.03
2018-03-21T04:27:22.782Z,102383.42
2018-03-21T04:32:17.225Z,102384.67
2018-03-21T04:37:12.411Z,102380.69
2018-03-21T04:42:06.539Z,102378.45
2018-03-21T04:47:01.881Z,102385.77
2018-03-21T04:51:56.200Z,102380.52
2018-03-21T04:56:50.553Z,102381.77
2018-03-21T05:01:46.248Z,102383.03
2018-03-21T05:06:40.953Z,102382.53
2018-03-21T05:11:35.644Z,102381.65
2018-03-21T05:16:30.777Z,102383.80
2018-03-21T05:21:25.148Z,102388.14
2018-03-21T05:26:19.623Z,102396.77
2018-03-21T05:31:13.936Z,102395.47
2018-03-21T05:36:08.270Z,102398.09
2018-03-21T05:41:03.476Z,102398.98
2018-03-21T05:45:58.988Z,102398.25
2018-03-21T05:50:53.461Z,102389.74
2018-03-21T05:55:47.776Z,102399.44
2018-03-21T06:00:42.288Z,102406.98
2018-03-21T06:05:36.652Z,102409.82
2018-03-21T06:10:31.145Z,102424.84
2018-03-21T06:15:26.262Z,102418.62
2018-03-21T06:20:21.477Z,102419.39
2018-03-21T06:25:16.725Z,102426.14
2018-03-21T06:30:11.138Z,102420.70
2018-03-21T06:35:05.227Z,102421.83
2018-03-21T06:39:59.583Z,102431.67
2018-03-21T06:44:55.238Z,102438.52
2018-03-21T06:49:50.633Z,102447.48
2018-03-21T06:54:45.036Z,102462.66
2018-03-21T06:59:39.711Z,102459.36
2018-03-21T07:04:34.030Z,102468.48
2018-03-21T07:09:28.355Z,102466.86
2018-03-21T07:14:40.405Z,102470.26
2018-03-21T07:19:35.113Z,102473.27
2018-03-21T07:24:31.359Z,102473.87
2018-03-21T07:29:26.253Z,102473.86
2018-03-21T07:34:21.346Z,102481.70
2018-03-21T07:39:15.926Z,102490.33
2018-03-21T07:44:10.272Z,102506.69
2018-03-21T07:49:04.664Z,102516.80
2018-03-21T07:53:59.189Z,102523.27
2018-03-21T07:58:53.524Z,102524.25
2018-03-21T08:03:48.610Z,102527.39
2018-03-21T08:08:42.980Z,102527.81
2018-03-21T08:13:37.506Z,102531.31
2018-03-21T08:18:32.018Z,102530.22
2018-03-21T08:23:26.410Z,102525.06
2018-03-21T08:28:20.904Z,102534.73
2018-03-21T08:33:15.212Z,102535.19
2018-03-21T08:38:09.613Z,102556.19
2018-03-21T08:43:03.946Z,102560.14
2018-03-21T08:47:58.371Z,102555.32
2018-03-21T08:52:53.467Z,102564.05
2018-03-21T08:57:47.778Z,102568.44
2018-03-21T09:02:42.892Z,102568.86
2018-03-21T09:07:37.476Z,102578.02
2018-03-21T09:12:31.816Z,102572.34
2018-03-21T09:17:26.878Z,102572.80
2018-03-21T09:22:21.203Z,102571.05
2018-03-21T09:27:15.508Z,102574.55
2018-03-21T09:32:09.844Z,102567.99
2018-03-21T09:37:05.018Z,102558.80
2018-03-21T09:42:00.232Z,102553.94
2018-03-21T09:46:54.800Z,102555.64
2018-03-21T09:51:49.223Z,102550.33
2018-03-21T09:56:43.748Z,102546.70
2018-03-21T10:01:37.764Z,102544.38
2018-03-21T10:06:32.214Z,102545.08
2018-03-21T10:11:26.595Z,102542.83
2018-03-21T10:16:22.170Z,102540.59
2018-03-21T10:21:16.488Z,102552.78
2018-03-21T10:26:10.990Z,102556.19
2018-03-21T10:31:05.302Z,102559.27
2018-03-21T10:35:59.648Z,102555.37
2018-03-21T10:40:54.738Z,102546.52
2018-03-21T10:45:49.838Z,102547.23
2018-03-21T10:50:44.318Z,102549.20
2018-03-21T10:55:38.622Z,102539.29
2018-03-21T11:00:32.951Z,102542.88
2018-03-21T11:05:27.307Z,102532.38
2018-03-21T11:10:21.626Z,102542.14
2018-03-21T11:15:16.370Z,102536.24
2018-03-21T11:20:10.846Z,102549.47
2018-03-21T11:25:05.175Z,102551.61
2018-03-21T11:30:01.165Z,102552.86
2018-03-21T11:34:55.484Z,102544.95
2018-03-21T11:39:49.919Z,102544.66
2018-03-21T11:44:44.248Z,102540.22
2018-03-21T11:49:39.436Z,102531.76
2018-03-21T11:54:33.740Z,102526.92
2018-03-21T11:59:27.979Z,102513.44
2018-03-21T12:04:22.312Z,102514.22
2018-03-21T12:09:16.781Z,102494.12
2018-03-21T12:14:11.867Z,102497.44
2018-03-21T12:19:06.222Z,102495.65
2018-03-21T12:24:00.554Z,102494.98
2018-03-21T12:28:56.520Z,102495.27
2018-03-21T12:33:51.193Z,102486.98
2018-03-21T12:38:45.824Z,102480.21
2018-03-21T12:43:40.130Z,102479.84
2018-03-21T12:48:34.441Z,102473.77
2018-03-21T12:53:28.769Z,102467.14
2018-03-21T12:58:23.068Z,102473.20
2018-03-21T13:03:17.601Z,102462.68
2018-03-21T13:08:12.316Z,102458.52
2018-03-21T13:13:06.620Z,102445.42
2018-03-21T13:18:00.926Z,102435.21
2018-03-21T13:22:55.244Z,102430.50
2018-03-21T13:27:49.577Z,102424.61
2018-03-21T13:32:44.660Z,102429.17
2018-03-21T13:37:39.024Z,102428.24
2018-03-21T13:42:33.341Z,102419.49
2018-03-21T13:47:27.489Z,102418.85
2018-03-21T13:52:22.622Z,102406.28
2018-03-21T13:57:17.273Z,102413.09
2018-03-21T14:02:11.651Z,102425.33
2018-03-21T14:07:06.159Z,102423.25
2018-03-21T14:12:00.665Z,102430.09
2018-03-21T14:16:55.372Z,102414.48
2018-03-21T14:21:49.664Z,102405.96
2018-03-21T14:26:44.882Z,102395.83
2018-03-21T14:31:40.120Z,102386.22
2018-03-21T14:36:34.222Z,102383.02
2018-03-21T14:41:28.650Z,102378.84
2018-03-21T14:46:23.142Z,102380.44
2018-03-21T14:51:17.469Z,102379.58
2018-03-21T14:56:11.977Z,102368.58
2018-03-21T15:01:06.322Z,102378.64
2018-03-21T15:06:01.546Z,102372.63
2018-03-21T15:10:55.876Z,102359.84
2018-03-21T15:15:50.181Z,102349.86
2018-03-21T15:20:44.485Z,102351.27
2018-03-21T15:25:38.782Z,102345.58
2018-03-21T15:30:33.080Z,102335.61
2018-03-21T15:35:27.391Z,102340.05
2018-03-21T15:40:21.815Z,102341.52
2018-03-21T15:45:16.120Z,102342.95
2018-03-21T15:50:11.197Z,102336.56
2018-03-21T15:55:05.614Z,102323.19
2018-03-21T16:00:00.078Z,102314.27
2018-03-21T16:04:55.141Z,102322.25
2018-03-21T16:09:49.450Z,102312.02
2018-03-21T16:14:43.942Z,102290.05
2018-03-21T16:19:38.243Z,102296.83
2018-03-21T16:24:32.836Z,102293.61
2018-03-21T16:29:27.156Z,102295.11
2018-03-21T16:34:21.461Z,102289.52
2018-03-21T16:39:16.665Z,102289.61
2018-03-21T16:44:10.990Z,102288.14
2018-03-21T16:49:05.346Z,102289.28
2018-03-21T16:53:59.919Z,102285.64
2018-03-21T16:58:54.218Z,102288.90
2018-03-21T17:03:49.281Z,102284.65
2018-03-21T17:08:43.608Z,102288.21
2018-03-21T17:13:38.228Z,102286.02
2018-03-21T17:18:32.325Z,102287.33
2018-03-21T17:23:26.684Z,102278.15
2018-03-21T17:28:21.126Z,102279.02
2018-03-21T17:33:15.452Z,102280.72
2018-03-21T17:38:09.789Z,102274.94
2018-03-21T17:43:04.607Z,102275.31
2018-03-21T17:47:58.913Z,102273.92
2018-03-21T17:52:53.212Z,102265.56
2018-03-21T17:57:47.602Z,102261.61
2018-03-21T18:02:42.018Z,102258.09
2018-03-21T18:07:36.562Z,102260.26
2018-03-21T18:12:30.907Z,102255.87
2018-03-21T18:17:25.982Z,102247.58
2018-03-21T18:22:20.294Z,102243.21
2018-03-21T18:27:14.699Z,102239.34
2018-03-21T18:32:09.025Z,102244.15
2018-03-21T18:37:04.081Z,102243.68
2018-03-21T18:41:58.405Z,102237.05
2018-03-21T18:46:52.992Z,102233.97
2018-03-21T18:51:47.100Z,102227.34
2018-03-21T18:56:41.438Z,102227.78
2018-03-21T19:01:35.935Z,102225.20
2018-03-21T19:06:31.042Z,102223.50
2018-03-21T19:11:25.363Z,102219.75
2018-03-21T19:16:19.690Z,102219.05
2018-03-21T19:21:14.780Z,102213.11
2018-03-21T19:26:09.088Z,102213.30
2018-03-21T19:31:04.184Z,102214.27
2018-03-21T19:35:59.464Z,102216.52
2018-03-21T19:40:53.775Z,102211.27
2018-03-21T19:45:47.860Z,102209.03
2018-03-21T19:50:42.357Z,102203.37
2018-03-21T19:55:36.748Z,102199.44
2018-03-21T20:00:36.132Z,102198.06
2018-03-21T20:05:30.508Z,102197.19
2018-03-21T20:10:25.918Z,102195.41
2018-03-21T20:15:20.294Z,102191.47
2018-03-21T20:20:15.649Z,102177.92
2018-03-21T20:25:10.340Z,102173.98
2018-03-21T20:30:05.416Z,102178.35
2018-03-21T20:34:59.795Z,102170.52
2018-03-21T20:39:54.323Z,102165.30
2018-03-21T20:44:48.753Z,102164.53
2018-03-21T20:49:44.860Z,102160.72
2018-03-21T20:54:39.149Z,102152.50
2018-03-21T20:59:33.625Z,102146.45
2018-03-21T21:04:29.595Z,102148.70
2018-03-21T21:09:24.072Z,102136.52
2018-03-21T21:14:19.166Z,102133.05
2018-03-21T21:19:13.499Z,102126.97
2018-03-21T21:24:08.604Z,102131.84
2018-03-21T21:29:03.690Z,102117.03
2018-03-21T21:34:00.561Z,102118.81
2018-03-21T21:38:56.890Z,102108.80
2018-03-21T21:43:51.634Z,102103.61
2018-03-21T21:48:46.408Z,102103.69
2018-03-21T21:53:41.895Z,102096.73
2018-03-21T21:58:37.055Z,102099.84
2018-03-21T22:03:32.434Z,102088.03
2018-03-21T22:08:29.157Z,102081.50
2018-03-21T22:13:24.165Z,102077.58
2018-03-21T22:18:18.958Z,102064.55
2018-03-21T22:23:13.807Z,102058.94
2018-03-21T22:28:09.375Z,102059.87
2018-03-21T22:33:04.294Z,102052.53
2018-03-21T22:37:59.064Z,102040.39
2018-03-21T22:42:57.171Z,102038.72
2018-03-21T22:47:52.463Z,102036.14
2018-03-21T22:52:47.354Z,102017.01
2018-03-21T22:57:42.245Z,102009.63
2018-03-21T23:02:37.924Z,102007.45
2018-03-21T23:07:32.860Z,101997.02
2018-03-21T23:12:29.380Z,101985.23
2018-03-21T23:17:24.068Z,101982.59
2018-03-21T23:22:19.842Z,101982.55
2018-03-21T23:27:15.545Z,101967.69
2018-03-21T23:32:09.889Z,101961.09
2018-03-21T23:37:04.318Z,101958.42
2018-03-21T23:41:59.527Z,101952.27
2018-03-21T23:46:54.221Z,101947.39
2018-03-21T23:51:48.791Z,101937.73
2018-03-21T23:56:44.098Z,101941.16
